Time;durP1;ratioP1;P1;durP2;ratioP2;P2;SDS_P1;SDS_P2;PMS_P1;PMS_P2;Temp;Humidity;BMP_temperature;BMP_pressure;BME280_temperature;BME280_humidity;BME280_pressure;Samples;Min_cycle;Max_cycle;Signal;HPM_P1;HPM_P2
2021/05/08 00:01:50;;;;;;;4.82;2.75;;;9.70;99.90;;;;;;5030212;28;20041;-83
2021/05/08 00:04:16;;;;;;;4.47;2.58;;;10.00;99.90;;;;;;5030527;28;20044;-83
2021/05/08 00:06:41;;;;;;;5.95;2.53;;;9.80;99.90;;;;;;5032648;28;20034;-83
2021/05/08 00:09:08;;;;;;;4.22;2.70;;;10.10;99.90;;;;;;5030804;28;20017;-83
2021/05/08 00:11:35;;;;;;;4.47;2.67;;;9.90;99.90;;;;;;5030815;28;20033;-83
2021/05/08 00:14:01;;;;;;;5.80;3.15;;;9.90;99.90;;;;;;5031001;28;20026;-83
2021/05/08 00:16:26;;;;;;;5.40;3.80;;;9.80;99.90;;;;;;5030366;28;20534;-83
2021/05/08 00:18:52;;;;;;;4.65;3.33;;;9.70;99.90;;;;;;5032903;28;20053;-83
2021/05/08 00:21:18;;;;;;;5.40;3.30;;;9.80;99.90;;;;;;5030407;28;20120;-83
2021/05/08 00:23:44;;;;;;;4.78;3.47;;;9.80;99.90;;;;;;5030582;28;20045;-84
2021/05/08 00:26:09;;;;;;;5.57;3.65;;;9.80;99.90;;;;;;5030655;28;20041;-83
2021/05/08 00:28:35;;;;;;;7.05;3.38;;;9.80;99.90;;;;;;5029128;28;20064;-83
2021/05/08 00:31:01;;;;;;;7.18;3.70;;;9.80;99.90;;;;;;5031703;28;20048;-83
2021/05/08 00:33:28;;;;;;;5.00;3.40;;;9.70;99.90;;;;;;5030600;28;20050;-83
2021/05/08 00:35:53;;;;;;;7.78;3.40;;;9.70;99.90;;;;;;5030197;28;20021;-84
2021/05/08 00:38:19;;;;;;;4.80;3.25;;;9.70;99.90;;;;;;5030487;28;20468;-83
2021/05/08 00:40:45;;;;;;;4.38;3.20;;;9.60;99.90;;;;;;5031188;28;20494;-83
2021/05/08 00:43:11;;;;;;;6.18;3.42;;;9.60;99.90;;;;;;5030980;28;20056;-84
2021/05/08 00:45:36;;;;;;;6.60;3.30;;;9.60;99.90;;;;;;5031030;28;20071;-83
2021/05/08 00:48:11;;;;;;;5.43;3.10;;;9.90;99.90;;;;;;5028772;28;20497;-83
2021/05/08 00:50:37;;;;;;;4.90;2.88;;;9.60;99.90;;;;;;5029382;28;20122;-83
2021/05/08 00:53:04;;;;;;;5.78;3.42;;;9.10;99.90;;;;;;5030099;28;20490;-83
2021/05/08 00:55:30;;;;;;;4.30;3.08;;;9.10;99.90;;;;;;5030142;28;20041;-83
2021/05/08 00:57:56;;;;;;;4.40;3.15;;;9.30;99.90;;;;;;5032698;28;20021;-83
2021/05/08 01:00:23;;;;;;;3.80;3.20;;;9.10;99.90;;;;;;5029755;28;20108;-83
2021/05/08 01:02:48;;;;;;;7.28;3.38;;;9.20;99.90;;;;;;5029650;28;20025;-84
2021/05/08 01:05:15;;;;;;;4.57;3.03;;;9.30;99.90;;;;;;5030682;28;20491;-83
2021/05/08 01:07:41;;;;;;;4.32;3.03;;;9.30;99.90;;;;;;5028695;28;20487;-83
2021/05/08 01:10:10;;;;;;;3.83;3.28;;;9.30;99.90;;;;;;5031267;28;20037;-84
2021/05/08 01:12:37;;;;;;;5.85;3.28;;;9.30;99.90;;;;;;5031185;28;20382;-84
2021/05/08 01:15:05;;;;;;;8.20;3.28;;;9.30;99.90;;;;;;5029311;28;20092;-83
2021/05/08 01:17:31;;;;;;;3.92;2.90;;;9.30;99.90;;;;;;5029951;28;20041;-83
2021/05/08 01:19:57;;;;;;;4.78;3.13;;;9.30;99.90;;;;;;5029712;28;20517;-83
2021/05/08 01:22:22;;;;;;;6.13;3.25;;;9.30;99.90;;;;;;5029949;28;20038;-83
2021/05/08 01:24:48;;;;;;;3.85;2.90;;;9.20;99.90;;;;;;5031949;28;20121;-83
2021/05/08 01:27:14;;;;;;;3.53;2.83;;;9.20;99.90;;;;;;5029969;28;20017;-83
2021/05/08 01:29:39;;;;;;;3.92;2.80;;;9.10;99.90;;;;;;5029384;28;20056;-83
2021/05/08 01:32:05;;;;;;;9.75;2.80;;;9.20;99.90;;;;;;5028814;28;20049;-83
2021/05/08 01:34:31;;;;;;;3.30;2.53;;;9.20;99.90;;;;;;5030025;28;20026;-83
2021/05/08 01:36:56;;;;;;;4.82;2.67;;;9.10;99.90;;;;;;5032091;28;20491;-83
2021/05/08 01:39:22;;;;;;;3.83;2.97;;;9.20;99.90;;;;;;5029614;28;20512;-83
2021/05/08 01:41:48;;;;;;;3.42;2.75;;;9.20;99.90;;;;;;5030099;28;20021;-84
2021/05/08 01:44:14;;;;;;;3.63;2.80;;;9.10;99.90;;;;;;5029180;28;20390;-83
2021/05/08 01:46:42;;;;;;;3.63;2.75;;;9.10;99.90;;;;;;5028144;28;20030;-84
2021/05/08 01:49:08;;;;;;;4.22;2.90;;;9.10;99.90;;;;;;5031470;28;20072;-83
2021/05/08 01:51:34;;;;;;;3.20;2.90;;;9.00;99.90;;;;;;5031182;28;20021;-84
2021/05/08 01:53:59;;;;;;;4.70;2.75;;;8.90;99.90;;;;;;5029408;28;20030;-83
2021/05/08 01:56:25;;;;;;;4.82;2.90;;;8.90;99.90;;;;;;5029495;28;20043;-84
2021/05/08 01:58:51;;;;;;;3.63;2.72;;;8.80;1.00;;;;;;5029119;28;20064;-83
2021/05/08 02:01:16;;;;;;;3.65;3.08;;;8.60;99.90;;;;;;5029584;28;20026;-84
2021/05/08 02:03:42;;;;;;;5.32;2.70;;;8.50;1.00;;;;;;5034489;28;20502;-83
2021/05/08 02:06:08;;;;;;;6.57;2.60;;;8.70;99.90;;;;;;5033396;28;20092;-83
2021/05/08 02:08:34;;;;;;;3.92;2.90;;;8.50;1.00;;;;;;5033544;28;20486;-83
2021/05/08 02:10:59;;;;;;;5.28;2.50;;;8.40;1.00;;;;;;5033233;28;20040;-83
2021/05/08 02:13:25;;;;;;;3.63;2.75;;;8.40;1.00;;;;;;5032483;28;20040;-84
2021/05/08 02:15:51;;;;;;;5.97;3.15;;;8.50;1.00;;;;;;5034947;28;20469;-83
2021/05/08 02:18:17;;;;;;;5.60;2.60;;;8.60;1.00;;;;;;5032724;28;20703;-82
2021/05/08 02:20:44;;;;;;;4.13;2.55;;;9.10;1.00;;;;;;5033356;28;20172;-83
2021/05/08 02:23:13;;;;;;;4.20;2.70;;;8.70;1.00;;;;;;5031740;28;20029;-83
2021/05/08 02:25:39;;;;;;;2.75;2.40;;;8.80;1.00;;;;;;5031199;28;20198;-83
2021/05/08 02:28:05;;;;;;;2.40;2.20;;;8.70;1.00;;;;;;5032386;28;20026;-83
2021/05/08 02:30:33;;;;;;;2.97;2.63;;;8.80;1.00;;;;;;5033528;28;20506;-83
2021/05/08 02:32:59;;;;;;;4.47;2.20;;;8.80;1.00;;;;;;5031076;28;20049;-82
2021/05/08 02:35:26;;;;;;;3.58;2.22;;;8.80;1.00;;;;;;5032374;28;20033;-83
2021/05/08 02:37:53;;;;;;;2.20;2.00;;;8.90;1.00;;;;;;5032527;28;20029;-82
2021/05/08 02:40:27;;;;;;;2.88;2.30;;;9.00;1.00;;;;;;5032566;28;20112;-83
2021/05/08 02:42:53;;;;;;;3.35;2.30;;;9.00;1.00;;;;;;5034529;28;20022;-83
2021/05/08 02:45:19;;;;;;;3.00;2.22;;;9.00;1.00;;;;;;5032168;28;20038;-83
2021/05/08 02:47:46;;;;;;;5.20;2.78;;;9.00;1.00;;;;;;5032335;28;20032;-83
2021/05/08 02:50:14;;;;;;;4.15;2.35;;;9.00;1.00;;;;;;5032604;28;20044;-83
2021/05/08 02:52:40;;;;;;;4.95;2.20;;;9.00;1.00;;;;;;5047521;28;20104;-82
2021/05/08 02:55:07;;;;;;;4.43;2.40;;;9.00;1.00;;;;;;5033473;28;20079;-83
2021/05/08 02:57:32;;;;;;;5.78;2.20;;;8.90;1.00;;;;;;5032778;28;20026;-83
2021/05/08 02:59:58;;;;;;;4.78;2.15;;;8.90;1.00;;;;;;5032015;28;20399;-83
2021/05/08 03:02:24;;;;;;;3.05;2.05;;;8.90;1.00;;;;;;5032282;28;20021;-83
2021/05/08 03:04:49;;;;;;;3.90;2.28;;;8.90;1.00;;;;;;5030579;28;20072;-83
2021/05/08 03:07:15;;;;;;;2.92;2.28;;;8.90;1.00;;;;;;5031947;28;20030;-83
2021/05/08 03:09:42;;;;;;;2.92;2.40;;;8.90;1.00;;;;;;5034193;28;20087;-83
2021/05/08 03:12:08;;;;;;;3.95;2.45;;;8.90;1.00;;;;;;5031873;28;20026;-83
2021/05/08 03:14:34;;;;;;;2.90;2.20;;;8.90;1.00;;;;;;5030748;28;20022;-82
2021/05/08 03:16:59;;;;;;;3.55;2.30;;;8.90;1.00;;;;;;5031936;28;20026;-83
2021/05/08 03:19:25;;;;;;;2.88;2.17;;;8.90;1.00;;;;;;5033013;28;20048;-83
2021/05/08 03:21:50;;;;;;;4.45;2.50;;;8.90;1.00;;;;;;5033865;28;20028;-84
2021/05/08 03:24:16;;;;;;;4.88;2.50;;;8.90;1.00;;;;;;5030980;28;20053;-83
2021/05/08 03:26:42;;;;;;;3.53;2.50;;;8.90;1.00;;;;;;5031692;28;20030;-83
2021/05/08 03:29:08;;;;;;;3.88;2.22;;;8.90;1.00;;;;;;5031869;28;20025;-82
2021/05/08 03:31:33;;;;;;;4.35;2.50;;;8.90;1.00;;;;;;5031487;28;20030;-83
2021/05/08 03:34:00;;;;;;;5.15;2.53;;;8.90;1.00;;;;;;5033753;28;20088;-84
2021/05/08 03:36:25;;;;;;;4.93;2.22;;;9.20;1.00;;;;;;5030276;28;20409;-83
2021/05/08 03:38:51;;;;;;;2.88;2.60;;;8.90;1.00;;;;;;5030737;28;20072;-82
2021/05/08 03:41:17;;;;;;;4.82;2.95;;;9.00;1.00;;;;;;5032023;28;20064;-83
2021/05/08 03:43:43;;;;;;;2.30;2.03;;;9.10;1.00;;;;;;5030040;28;20554;-83
2021/05/08 03:46:08;;;;;;;3.92;2.30;;;9.20;1.00;;;;;;5032024;28;20129;-82
2021/05/08 03:48:34;;;;;;;3.60;2.10;;;9.30;1.00;;;;;;5031483;28;20032;-83
2021/05/08 03:50:59;;;;;;;4.85;2.30;;;9.80;1.00;;;;;;5030848;28;20448;-83
2021/05/08 03:53:26;;;;;;;5.72;2.17;;;9.30;1.00;;;;;;5030618;28;20017;-83
2021/05/08 03:55:52;;;;;;;4.60;2.50;;;9.30;1.00;;;;;;5031052;28;20116;-83
2021/05/08 03:58:37;;;;;;;3.65;2.30;;;9.40;1.00;;;;;;5031547;28;20025;-83
2021/05/08 04:01:02;;;;;;;2.20;2.00;;;9.50;1.00;;;;;;5032243;28;20490;-83
2021/05/08 04:03:28;;;;;;;2.88;2.25;;;9.40;1.00;;;;;;5029651;28;20056;-82
2021/05/08 04:05:54;;;;;;;2.38;2.13;;;9.40;1.00;;;;;;5030637;28;20083;-83
2021/05/08 04:08:20;;;;;;;4.38;2.90;;;9.60;1.00;;;;;;5030452;28;20120;-83
2021/05/08 04:10:49;;;;;;;3.28;2.00;;;9.50;99.90;;;;;;5031044;28;20036;-82
2021/05/08 04:13:15;;;;;;;3.45;2.05;;;9.50;1.00;;;;;;5030935;28;20021;-83
2021/05/08 04:15:42;;;;;;;3.58;2.30;;;9.40;1.00;;;;;;5030541;28;20065;-83
2021/05/08 04:18:07;;;;;;;5.03;2.08;;;9.30;1.00;;;;;;5030476;28;20029;-82
2021/05/08 04:20:33;;;;;;;2.75;2.10;;;9.30;1.00;;;;;;5030820;28;20033;-83
2021/05/08 04:22:59;;;;;;;3.13;2.20;;;9.40;1.00;;;;;;5028869;28;20556;-82
2021/05/08 04:25:25;;;;;;;4.07;2.65;;;9.40;1.00;;;;;;5030163;28;20065;-83
2021/05/08 04:27:51;;;;;;;4.00;2.55;;;9.40;1.00;;;;;;5032553;28;20017;-82
2021/05/08 04:30:17;;;;;;;3.70;2.33;;;9.50;1.00;;;;;;5030668;28;20033;-83
2021/05/08 04:32:43;;;;;;;2.47;2.15;;;9.50;1.00;;;;;;5030173;28;20642;-83
2021/05/08 04:35:09;;;;;;;3.00;2.00;;;9.50;1.00;;;;;;5030036;28;20112;-83
2021/05/08 04:37:34;;;;;;;4.05;2.28;;;9.50;1.00;;;;;;5030161;28;20379;-83
2021/05/08 04:40:00;;;;;;;2.67;2.13;;;9.40;1.00;;;;;;5032837;28;20029;-83
2021/05/08 04:42:25;;;;;;;3.35;2.17;;;9.70;1.00;;;;;;5029216;28;20029;-83
2021/05/08 04:44:51;;;;;;;4.45;2.00;;;9.30;1.00;;;;;;5030274;28;20091;-83
2021/05/08 04:47:20;;;;;;;4.97;2.28;;;9.40;1.00;;;;;;5028897;28;20033;-83
2021/05/08 04:49:46;;;;;;;3.03;2.60;;;9.40;1.00;;;;;;5029602;28;20059;-82
2021/05/08 04:52:11;;;;;;;3.22;2.20;;;9.40;1.00;;;;;;5029653;28;20017;-82
2021/05/08 04:54:37;;;;;;;3.38;2.42;;;9.20;1.00;;;;;;5031296;28;20026;-86
2021/05/08 04:57:03;;;;;;;2.50;2.30;;;9.20;1.00;;;;;;5030139;28;20056;-82
2021/05/08 04:59:29;;;;;;;6.07;2.70;;;9.30;1.00;;;;;;5029895;28;20029;-85
2021/05/08 05:01:54;;;;;;;4.85;2.33;;;9.30;1.00;;;;;;5030662;28;20104;-84
2021/05/08 05:04:20;;;;;;;2.80;2.47;;;9.30;1.00;;;;;;5029946;28;20128;-85
2021/05/08 05:06:45;;;;;;;3.70;2.55;;;9.30;1.00;;;;;;5031736;28;20041;-86
2021/05/08 05:09:11;;;;;;;4.47;2.88;;;9.30;1.00;;;;;;5030250;28;20026;-85
2021/05/08 05:11:37;;;;;;;3.03;2.55;;;9.20;1.00;;;;;;5030244;28;20036;-85
2021/05/08 05:14:03;;;;;;;6.15;2.53;;;9.20;1.00;;;;;;5028133;28;20056;-85
2021/05/08 05:16:29;;;;;;;3.95;2.70;;;9.30;1.00;;;;;;5014776;28;20520;-82
2021/05/08 05:18:55;;;;;;;3.67;2.53;;;9.30;1.00;;;;;;5031866;28;20026;-83
2021/05/08 05:21:20;;;;;;;3.20;2.42;;;9.30;1.00;;;;;;5029012;28;20545;-82
2021/05/08 05:23:46;;;;;;;4.57;2.72;;;9.30;1.00;;;;;;5029989;28;20025;-84
2021/05/08 05:26:13;;;;;;;3.35;2.60;;;9.30;1.00;;;;;;5029753;28;20521;-85
2021/05/08 05:28:38;;;;;;;2.80;2.35;;;9.40;1.00;;;;;;5030312;28;20108;-85
2021/05/08 05:31:04;;;;;;;4.28;2.42;;;9.40;1.00;;;;;;5030982;28;20644;-85
2021/05/08 05:33:30;;;;;;;3.85;2.50;;;9.30;1.00;;;;;;5029636;28;20083;-83
2021/05/08 05:35:55;;;;;;;5.20;2.42;;;9.20;1.00;;;;;;5028846;28;20030;-82
2021/05/08 05:38:23;;;;;;;4.05;2.90;;;9.30;1.00;;;;;;5032799;28;20029;-84
2021/05/08 05:40:52;;;;;;;3.58;2.60;;;9.60;1.00;;;;;;5032210;28;20026;-83
2021/05/08 05:43:18;;;;;;;4.15;2.80;;;9.60;1.00;;;;;;5034182;28;20112;-84
2021/05/08 05:45:43;;;;;;;4.82;2.58;;;10.00;1.00;;;;;;5035283;28;20041;-84
2021/05/08 05:48:09;;;;;;;5.22;2.85;;;9.80;1.00;;;;;;5034068;28;20096;-87
2021/05/08 05:50:39;;;;;;;4.57;3.05;;;9.90;99.90;;;;;;5031850;28;20025;-85
2021/05/08 05:53:06;;;;;;;7.28;3.00;;;10.00;99.90;;;;;;5033649;28;20026;-84
2021/05/08 05:55:32;;;;;;;4.95;3.28;;;10.20;99.90;;;;;;5034449;28;20115;-84
2021/05/08 05:57:58;;;;;;;4.00;2.85;;;10.20;99.90;;;;;;5036039;28;20106;-84
2021/05/08 06:00:24;;;;;;;5.05;2.92;;;10.60;99.90;;;;;;5033477;28;20048;-84
2021/05/08 06:02:49;;;;;;;2.92;2.63;;;10.40;99.90;;;;;;5031912;28;20033;-84
2021/05/08 06:05:16;;;;;;;4.75;3.13;;;10.50;99.90;;;;;;5031506;28;20457;-84
2021/05/08 06:07:41;;;;;;;5.40;2.90;;;10.80;99.90;;;;;;5033554;28;20075;-85
2021/05/08 06:10:10;;;;;;;2.42;2.22;;;11.00;99.90;;;;;;5035084;28;20030;-84
2021/05/08 06:12:36;;;;;;;3.17;2.80;;;11.00;99.90;;;;;;5034584;28;20021;-84
2021/05/08 06:15:03;;;;;;;3.95;2.60;;;11.30;99.90;;;;;;5032751;28;20525;-84
2021/05/08 06:17:28;;;;;;;3.17;2.50;;;11.60;99.90;;;;;;5033151;28;20383;-84
2021/05/08 06:19:54;;;;;;;3.55;2.78;;;12.10;99.90;;;;;;5031661;28;20132;-82
2021/05/08 06:22:20;;;;;;;3.50;2.10;;;12.00;99.90;;;;;;5033489;28;20371;-84
2021/05/08 06:24:45;;;;;;;2.58;2.10;;;12.30;99.90;;;;;;5033868;28;20049;-84
2021/05/08 06:27:11;;;;;;;3.70;2.38;;;12.80;99.90;;;;;;5033038;28;20379;-85
2021/05/08 06:29:37;;;;;;;3.45;2.40;;;12.80;99.90;;;;;;5031894;28;20026;-84
2021/05/08 06:32:03;;;;;;;4.32;2.28;;;12.70;99.90;;;;;;5030825;28;20399;-83
2021/05/08 06:34:29;;;;;;;4.82;2.70;;;12.50;99.90;;;;;;5017454;28;20071;-85
2021/05/08 06:36:55;;;;;;;4.45;2.58;;;13.00;99.90;;;;;;5034733;28;20025;-83
2021/05/08 06:39:22;;;;;;;3.47;2.60;;;12.70;99.90;;;;;;5032256;28;20033;-85
2021/05/08 06:41:47;;;;;;;2.92;2.28;;;12.70;99.90;;;;;;5032117;28;20112;-84
2021/05/08 06:44:13;;;;;;;3.17;2.30;;;13.30;99.90;;;;;;5032724;28;20116;-82
2021/05/08 06:46:39;;;;;;;2.95;2.10;;;13.10;99.90;;;;;;5032888;28;20570;-84
2021/05/08 06:49:05;;;;;;;4.38;2.30;;;13.60;99.90;;;;;;5032186;28;20097;-84
2021/05/08 06:51:30;;;;;;;1.95;1.80;;;13.70;99.90;;;;;;5033490;28;20037;-84
2021/05/08 06:53:56;;;;;;;2.83;2.33;;;13.50;99.90;;;;;;5032255;28;20568;-84
2021/05/08 06:56:23;;;;;;;2.22;2.00;;;13.50;99.90;;;;;;5031553;28;20438;-84
2021/05/08 06:58:50;;;;;;;4.65;2.05;;;13.20;99.90;;;;;;5031485;28;20028;-84
2021/05/08 07:01:16;;;;;;;3.00;2.05;;;13.70;99.90;;;;;;5034147;28;20112;-84
2021/05/08 07:03:41;;;;;;;2.50;1.85;;;13.60;99.90;;;;;;5031239;28;20431;-84
2021/05/08 07:06:07;;;;;;;4.05;1.83;;;13.50;99.90;;;;;;5033141;28;20071;-84
2021/05/08 07:08:33;;;;;;;5.20;1.77;;;13.70;99.90;;;;;;5032022;28;20021;-84
2021/05/08 07:10:58;;;;;;;3.17;1.70;;;13.80;99.90;;;;;;5032872;28;20033;-84
2021/05/08 07:13:24;;;;;;;2.67;1.70;;;13.90;99.90;;;;;;5031493;28;20039;-84
2021/05/08 07:15:49;;;;;;;2.70;1.67;;;13.90;99.90;;;;;;5033820;28;20021;-84
2021/05/08 07:18:15;;;;;;;2.35;1.63;;;14.10;99.90;;;;;;5031612;28;20048;-84
2021/05/08 07:20:41;;;;;;;1.75;1.30;;;14.00;99.90;;;;;;5030989;28;20374;-84
2021/05/08 07:23:08;;;;;;;5.85;1.50;;;14.00;99.90;;;;;;5032816;28;20033;-84
2021/05/08 07:25:37;;;;;;;2.33;1.45;;;14.40;99.90;;;;;;5031886;28;20037;-84
2021/05/08 07:28:14;;;;;;;2.97;1.90;;;14.60;99.90;;;;;;5033190;28;20076;-84
2021/05/08 07:30:44;;;;;;;2.20;1.50;;;14.70;99.90;;;;;;5032951;28;20439;-83
2021/05/08 07:33:11;;;;;;;2.45;1.25;;;14.90;99.90;;;;;;5030827;28;20041;-85
2021/05/08 07:35:38;;;;;;;2.67;1.30;;;15.30;99.90;;;;;;5031896;28;20025;-85
2021/05/08 07:38:03;;;;;;;1.77;1.15;;;15.60;99.90;;;;;;5030342;28;20028;-85
2021/05/08 07:40:32;;;;;;;3.30;1.10;;;15.70;99.90;;;;;;5032090;28;20104;-84
2021/05/08 07:42:58;;;;;;;2.65;1.13;;;15.80;99.90;;;;;;5028936;28;20029;-84
2021/05/08 07:45:25;;;;;;;2.72;0.90;;;16.50;99.90;;;;;;5031664;28;20486;-84
2021/05/08 07:47:50;;;;;;;5.90;3.28;;;16.10;99.90;;;;;;5030906;28;20026;-85
2021/05/08 07:50:16;;;;;;;1.77;1.10;;;16.30;99.90;;;;;;5031521;28;20029;-84
2021/05/08 07:52:42;;;;;;;1.10;1.00;;;16.60;99.90;;;;;;5029245;28;20022;-84
2021/05/08 07:55:07;;;;;;;2.20;1.65;;;16.40;99.90;;;;;;5032678;28;20071;-84
2021/05/08 07:57:33;;;;;;;2.13;1.00;;;16.40;99.90;;;;;;5026647;28;20104;-84
2021/05/08 07:59:59;;;;;;;1.33;0.90;;;16.50;99.90;;;;;;5030505;28;20026;-84
2021/05/08 08:02:25;;;;;;;2.28;0.90;;;17.10;99.90;;;;;;5030985;28;20363;-84
2021/05/08 08:04:50;;;;;;;1.48;1.00;;;17.20;99.90;;;;;;5031342;28;20040;-84
2021/05/08 08:07:16;;;;;;;1.83;1.27;;;16.80;99.90;;;;;;5030818;28;20033;-86
2021/05/08 08:09:43;;;;;;;2.15;1.17;;;16.90;99.90;;;;;;5033509;28;20032;-84
2021/05/08 08:12:10;;;;;;;0.88;0.80;;;17.00;99.90;;;;;;5031745;28;20033;-83
2021/05/08 08:14:37;;;;;;;15.02;3.42;;;17.20;99.90;;;;;;5029611;28;20596;-83
2021/05/08 08:17:03;;;;;;;44.92;11.10;;;17.20;99.90;;;;;;5029760;28;20076;-84
2021/05/08 08:19:30;;;;;;;2.13;1.30;;;17.00;99.90;;;;;;5030684;28;20087;-84
2021/05/08 08:21:57;;;;;;;3.15;1.35;;;16.90;99.90;;;;;;5032684;28;20035;-84
2021/05/08 08:24:23;;;;;;;2.42;1.05;;;16.60;99.90;;;;;;5029680;28;20037;-84
2021/05/08 08:26:48;;;;;;;1.77;1.00;;;16.60;99.90;;;;;;5030874;28;20550;-84
2021/05/08 08:29:15;;;;;;;3.13;1.15;;;16.40;99.90;;;;;;5030354;28;20083;-84
2021/05/08 08:31:41;;;;;;;2.22;1.08;;;16.40;99.90;;;;;;5030701;28;20474;-85
2021/05/08 08:34:06;;;;;;;1.55;1.30;;;16.80;99.90;;;;;;5030939;28;20087;-85
2021/05/08 08:36:32;;;;;;;2.35;1.25;;;16.40;99.90;;;;;;5031492;28;20029;-84
2021/05/08 08:38:57;;;;;;;3.05;1.38;;;16.20;99.90;;;;;;5030100;28;20029;-84
2021/05/08 08:41:23;;;;;;;3.67;1.10;;;16.20;99.90;;;;;;5031056;28;20049;-85
2021/05/08 08:43:50;;;;;;;2.67;1.25;;;16.60;99.90;;;;;;5030068;28;20436;-85
2021/05/08 08:46:17;;;;;;;1.60;1.00;;;16.20;99.90;;;;;;5030823;28;20510;-85
2021/05/08 08:48:43;;;;;;;2.55;1.40;;;16.50;99.90;;;;;;5032059;28;20433;-84
2021/05/08 08:51:09;;;;;;;2.35;1.10;;;16.20;99.90;;;;;;5029002;28;20029;-85
2021/05/08 08:53:35;;;;;;;1.20;1.10;;;16.50;99.90;;;;;;5030442;28;20025;-85
2021/05/08 08:56:02;;;;;;;2.15;1.40;;;16.30;99.90;;;;;;5028979;28;20067;-84
2021/05/08 08:58:33;;;;;;;2.08;1.02;;;16.50;99.90;;;;;;5029867;28;20045;-85
2021/05/08 09:01:00;;;;;;;1.67;1.00;;;16.50;99.90;;;;;;5030703;28;20474;-85
2021/05/08 09:03:27;;;;;;;0.93;0.85;;;16.60;99.90;;;;;;5028198;28;20025;-84
2021/05/08 09:05:53;;;;;;;1.08;0.80;;;16.80;99.90;;;;;;5030210;28;20064;-85
2021/05/08 09:08:19;;;;;;;1.90;1.10;;;16.70;99.90;;;;;;5030139;28;20029;-85
2021/05/08 09:10:44;;;;;;;2.40;0.80;;;16.80;99.90;;;;;;5030700;28;20021;-85
2021/05/08 09:13:22;;;;;;;1.63;1.00;;;16.90;99.90;;;;;;5029776;28;20490;-85
2021/05/08 09:15:49;;;;;;;2.70;1.10;;;17.00;99.90;;;;;;5030095;28;20025;-85
2021/05/08 09:18:35;;;;;;;1.45;0.90;;;17.30;99.90;;;;;;5029328;28;20108;-84
2021/05/08 09:21:04;;;;;;;2.05;0.82;;;17.60;99.90;;;;;;5028548;28;20112;-85
2021/05/08 09:23:36;;;;;;;2.08;0.90;;;17.50;99.90;;;;;;5028692;28;20056;-85
2021/05/08 09:26:09;;;;;;;1.20;0.90;;;17.60;99.90;;;;;;5030114;28;20106;-85
2021/05/08 09:28:38;;;;;;;1.77;0.80;;;17.50;99.90;;;;;;5025869;28;20040;-85
2021/05/08 09:31:05;;;;;;;1.27;0.75;;;17.70;99.90;;;;;;5031418;28;20029;-85
2021/05/08 09:33:32;;;;;;;2.47;0.93;;;17.70;99.90;;;;;;5030396;28;20571;-85
2021/05/08 09:36:06;;;;;;;3.58;1.00;;;17.90;99.90;;;;;;5028435;28;20033;-85
2021/05/08 09:38:42;;;;;;;3.65;0.93;;;18.00;99.90;;;;;;5028274;28;20025;-85
2021/05/08 09:41:12;;;;;;;1.92;0.90;;;18.10;99.90;;;;;;5029349;28;20022;-86
2021/05/08 09:43:38;;;;;;;1.38;0.80;;;18.30;99.90;;;;;;5029751;28;20088;-85
2021/05/08 09:46:05;;;;;;;1.48;0.90;;;18.60;99.90;;;;;;5031222;28;20047;-85
2021/05/08 09:48:33;;;;;;;3.15;0.98;;;18.60;99.90;;;;;;5030067;28;20022;-85
2021/05/08 09:51:25;;;;;;;1.92;0.73;;;18.80;99.90;;;;;;5029970;28;20033;-85
2021/05/08 09:53:52;;;;;;;0.73;0.70;;;18.80;99.90;;;;;;5028844;28;20018;-87
2021/05/08 09:56:37;;;;;;;0.80;0.70;;;18.90;99.90;;;;;;5033156;28;20025;-81
2021/05/08 09:59:35;;;;;;;0.63;0.60;;;19.30;99.90;;;;;;5021558;28;20125;-82
2021/05/08 10:02:01;;;;;;;2.20;0.60;;;19.50;99.90;;;;;;5027040;28;20029;-87
2021/05/08 10:04:39;;;;;;;1.15;0.70;;;19.50;99.90;;;;;;5030680;28;20037;-87
2021/05/08 10:07:10;;;;;;;2.88;0.70;;;19.80;99.90;;;;;;5027068;28;20521;-86
2021/05/08 10:09:37;;;;;;;1.65;0.70;;;19.80;99.90;;;;;;5030787;28;20479;-86
2021/05/08 10:12:04;;;;;;;1.63;0.60;;;20.00;99.90;;;;;;5028965;28;20021;-86
2021/05/08 10:14:31;;;;;;;1.15;0.80;;;20.30;99.90;;;;;;5027390;28;20029;-86
2021/05/08 10:16:59;;;;;;;1.17;0.70;;;20.00;99.90;;;;;;5029139;28;20160;-86
2021/05/08 10:19:29;;;;;;;1.88;0.70;;;20.20;99.90;;;;;;5029830;28;20466;-86
2021/05/08 10:21:57;;;;;;;1.67;1.10;;;20.40;99.90;;;;;;5032422;28;20532;-91
2021/05/08 10:24:25;;;;;;;1.23;0.90;;;20.70;99.90;;;;;;5031924;28;20057;-90
2021/05/08 10:26:58;;;;;;;1.65;0.80;;;20.80;99.90;;;;;;5032687;28;20108;-93
2021/05/08 10:29:32;;;;;;;0.70;0.60;;;20.70;99.90;;;;;;5031646;28;20446;-89
2021/05/08 10:32:04;;;;;;;1.67;0.70;;;20.60;99.90;;;;;;5032034;28;20100;-89
2021/05/08 10:34:34;;;;;;;1.45;0.80;;;20.70;99.90;;;;;;5017418;28;20025;-90
2021/05/08 10:37:06;;;;;;;1.05;0.70;;;20.90;99.90;;;;;;5030928;28;20024;-87
2021/05/08 10:39:48;;;;;;;2.80;2.03;;;20.50;99.90;;;;;;5031994;28;20040;-89
2021/05/08 10:42:31;;;;;;;2.47;2.25;;;20.40;99.90;;;;;;5033210;28;20028;-89
2021/05/08 10:44:58;;;;;;;1.73;0.82;;;20.40;99.90;;;;;;5032983;28;20049;-87
2021/05/08 10:47:24;;;;;;;2.58;2.08;;;20.30;99.90;;;;;;5032670;28;20497;-84
2021/05/08 10:50:27;;;;;;;2.55;2.33;;;20.40;99.90;;;;;;5032513;28;20029;-84
2021/05/08 10:53:01;;;;;;;1.35;0.77;;;20.30;99.90;;;;;;5017296;28;20029;-85
2021/05/08 10:55:41;;;;;;;1.00;0.80;;;20.20;99.90;;;;;;5031207;28;20048;-84
2021/05/08 10:58:20;;;;;;;1.45;0.68;;;20.30;99.90;;;;;;5030316;28;20022;-86
2021/05/08 11:01:06;;;;;;;1.98;1.42;;;20.70;99.90;;;;;;5033786;28;20056;-88
2021/05/08 11:03:51;;;;;;;1.55;0.80;;;21.10;99.90;;;;;;5032226;28;20060;-88
2021/05/08 11:06:17;;;;;;;0.80;0.75;;;21.70;99.90;;;;;;5032429;28;20053;-87
2021/05/08 11:08:47;;;;;;;1.60;0.90;;;23.20;99.90;;;;;;5031901;28;20083;-87
2021/05/08 11:11:16;;;;;;;1.00;0.60;;;25.70;99.90;;;;;;5032271;28;20032;-86
2021/05/08 11:13:45;;;;;;;2.33;0.73;;;26.50;99.90;;;;;;5032685;28;20029;-86
2021/05/08 11:16:19;;;;;;;1.15;0.80;;;28.10;99.90;;;;;;5032617;28;20036;-86
2021/05/08 11:18:49;;;;;;;1.30;0.90;;;30.00;99.90;;;;;;5032494;28;20167;-87
2021/05/08 11:21:14;;;;;;;1.48;0.80;;;30.60;99.90;;;;;;5031990;28;20018;-87
2021/05/08 11:23:47;;;;;;;1.85;0.60;;;29.20;99.90;;;;;;5031859;28;20036;-85
2021/05/08 11:26:23;;;;;;;1.58;0.80;;;30.10;99.90;;;;;;5032091;28;20030;-89
2021/05/08 11:29:05;;;;;;;0.98;0.80;;;29.90;99.90;;;;;;5032080;28;20650;-87
2021/05/08 11:31:50;;;;;;;0.80;0.80;;;31.10;99.90;;;;;;5015491;28;20100;-86
2021/05/08 11:34:29;;;;;;;1.05;0.82;;;30.50;99.90;;;;;;5031446;28;20037;-86
2021/05/08 11:37:11;;;;;;;0.45;0.45;;;30.80;99.90;;;;;;5033617;28;20486;-86
2021/05/08 11:39:47;;;;;;;0.90;0.60;;;30.30;99.90;;;;;;5033505;28;20040;-86
2021/05/08 11:42:21;;;;;;;1.48;0.80;;;29.90;99.90;;;;;;5031485;28;20379;-87
2021/05/08 11:44:57;;;;;;;1.17;0.90;;;29.00;99.90;;;;;;5029211;28;20064;-87
2021/05/08 11:49:55;;;;;;;2.10;0.77;;;27.90;99.90;;;;;;5030239;28;20079;-87
2021/05/08 11:52:33;;;;;;;0.70;0.60;;;29.20;99.90;;;;;;5031260;28;20040;-87
2021/05/08 11:54:59;;;;;;;0.82;0.60;;;30.20;99.90;;;;;;5030379;28;20474;-87
2021/05/08 11:57:25;;;;;;;0.70;0.52;;;31.20;99.90;;;;;;5031515;28;20104;-86
2021/05/08 11:59:51;;;;;;;0.70;0.70;;;30.50;99.90;;;;;;5030340;28;20035;-87
2021/05/08 12:02:19;;;;;;;1.25;0.80;;;30.50;99.90;;;;;;5031503;28;20104;-87
2021/05/08 12:04:57;;;;;;;1.08;0.70;;;31.90;99.90;;;;;;5030985;28;20030;-87
2021/05/08 12:07:26;;;;;;;2.08;0.90;;;31.00;99.90;;;;;;5031015;28;20066;-87
2021/05/08 12:10:11;;;;;;;1.73;0.77;;;30.50;99.90;;;;;;5033169;28;20032;-86
2021/05/08 12:12:55;;;;;;;2.78;0.70;;;30.80;99.90;;;;;;5032657;28;20144;-87
2021/05/08 12:15:27;;;;;;;1.70;0.60;;;29.60;99.90;;;;;;5030713;28;20107;-88
2021/05/08 12:17:55;;;;;;;1.58;0.80;;;30.30;99.90;;;;;;5031959;28;20029;-87
2021/05/08 12:20:23;;;;;;;1.85;0.70;;;31.00;99.90;;;;;;5029610;28;20067;-88
2021/05/08 12:22:51;;;;;;;3.28;0.77;;;30.80;99.90;;;;;;5031015;28;20456;-88
2021/05/08 12:25:24;;;;;;;1.42;0.80;;;30.80;99.90;;;;;;5031159;28;20597;-87
2021/05/08 12:28:20;;;;;;;0.40;0.40;;;28.90;99.90;;;;;;5032738;28;20455;-87
2021/05/08 12:30:51;;;;;;;0.88;0.80;;;28.60;99.90;;;;;;5031677;28;20117;-87
2021/05/08 12:33:27;;;;;;;3.35;0.90;;;28.30;99.90;;;;;;5030448;28;20064;-87
2021/05/08 12:35:56;;;;;;;1.73;0.85;;;30.60;99.90;;;;;;5029689;28;20033;-87
2021/05/08 12:38:21;;;;;;;1.27;0.75;;;31.20;99.90;;;;;;5031287;28;20498;-87
2021/05/08 12:40:51;;;;;;;1.60;0.85;;;30.80;99.90;;;;;;5030790;28;20028;-87
2021/05/08 12:43:47;;;;;;;0.70;0.63;;;30.80;99.90;;;;;;5031023;28;20035;-87
2021/05/08 12:46:14;;;;;;;1.00;0.80;;;32.20;99.90;;;;;;5028542;28;20115;-88
2021/05/08 12:48:40;;;;;;;1.05;0.77;;;32.10;99.90;;;;;;5032819;28;20505;-87
2021/05/08 12:51:27;;;;;;;1.17;0.98;;;32.00;99.90;;;;;;5030934;28;20029;-87
2021/05/08 12:54:21;;;;;;;1.38;0.85;;;29.30;99.90;;;;;;5030580;28;20547;-87
2021/05/08 12:56:49;;;;;;;0.90;0.90;;;31.00;99.90;;;;;;5030816;28;20029;-87
2021/05/08 12:59:25;;;;;;;1.05;0.93;;;31.80;99.90;;;;;;5030541;28;20025;-87
2021/05/08 13:01:53;;;;;;;0.98;0.90;;;31.80;99.90;;;;;;5029372;28;20033;-87
2021/05/08 13:04:20;;;;;;;1.88;0.80;;;31.90;99.90;;;;;;5030663;28;20359;-87